sensor_id;sensor_type;location;lat;lon;timestamp;P1;durP1;ratioP1;P2;durP2;ratioP2
38940;SDS011;43236;47.208;7.518;2023-03-23T00:00:14;4.95;;;2.08;;
38940;SDS011;43236;47.208;7.518;2023-03-23T00:03:03;9.40;;;2.22;;
38940;SDS011;43236;47.208;7.518;2023-03-23T00:05:50;6.50;;;2.20;;
38940;SDS011;43236;47.208;7.518;2023-03-23T00:08:38;4.82;;;2.10;;
38940;SDS011;43236;47.208;7.518;2023-03-23T00:11:30;5.75;;;1.95;;
38940;SDS011;43236;47.208;7.518;2023-03-23T00:14:18;4.68;;;1.95;;
38940;SDS011;43236;47.208;7.518;2023-03-23T00:17:08;4.78;;;2.15;;
38940;SDS011;43236;47.208;7.518;2023-03-23T00:19:57;6.68;;;2.00;;
38940;SDS011;43236;47.208;7.518;2023-03-23T00:22:46;4.63;;;1.90;;
38940;SDS011;43236;47.208;7.518;2023-03-23T00:25:33;4.93;;;1.80;;
38940;SDS011;43236;47.208;7.518;2023-03-23T00:28:20;3.25;;;1.73;;
38940;SDS011;43236;47.208;7.518;2023-03-23T00:31:10;4.15;;;2.00;;
38940;SDS011;43236;47.208;7.518;2023-03-23T00:33:58;5.32;;;1.90;;
38940;SDS011;43236;47.208;7.518;2023-03-23T00:36:50;5.80;;;1.65;;
38940;SDS011;43236;47.208;7.518;2023-03-23T00:39:42;8.73;;;2.10;;
38940;SDS011;43236;47.208;7.518;2023-03-23T00:42:31;4.93;;;2.03;;
38940;SDS011;43236;47.208;7.518;2023-03-23T00:45:21;5.38;;;2.30;;
38940;SDS011;43236;47.208;7.518;2023-03-23T00:48:09;5.38;;;2.10;;
38940;SDS011;43236;47.208;7.518;2023-03-23T00:50:57;4.53;;;2.45;;
38940;SDS011;43236;47.208;7.518;2023-03-23T00:53:47;4.15;;;2.30;;
38940;SDS011;43236;47.208;7.518;2023-03-23T00:56:35;6.78;;;2.63;;
38940;SDS011;43236;47.208;7.518;2023-03-23T00:59:24;5.85;;;2.20;;
38940;SDS011;43236;47.208;7.518;2023-03-23T01:02:11;9.35;;;2.70;;
38940;SDS011;43236;47.208;7.518;2023-03-23T01:04:58;5.57;;;2.28;;
38940;SDS011;43236;47.208;7.518;2023-03-23T01:07:45;11.88;;;2.28;;
38940;SDS011;43236;47.208;7.518;2023-03-23T01:10:34;5.50;;;2.47;;
38940;SDS011;43236;47.208;7.518;2023-03-23T01:13:24;5.43;;;2.28;;
38940;SDS011;43236;47.208;7.518;2023-03-23T01:16:11;6.60;;;2.50;;
38940;SDS011;43236;47.208;7.518;2023-03-23T01:18:58;8.70;;;2.42;;
38940;SDS011;43236;47.208;7.518;2023-03-23T01:21:45;9.45;;;2.75;;
38940;SDS011;43236;47.208;7.518;2023-03-23T01:24:32;5.78;;;2.58;;
38940;SDS011;43236;47.208;7.518;2023-03-23T01:27:20;7.85;;;2.45;;
38940;SDS011;43236;47.208;7.518;2023-03-23T01:30:08;6.18;;;2.33;;
38940;SDS011;43236;47.208;7.518;2023-03-23T01:32:57;7.63;;;2.75;;
38940;SDS011;43236;47.208;7.518;2023-03-23T01:35:44;5.50;;;1.70;;
38940;SDS011;43236;47.208;7.518;2023-03-23T01:38:31;6.18;;;2.00;;
38940;SDS011;43236;47.208;7.518;2023-03-23T01:41:19;4.97;;;2.22;;
38940;SDS011;43236;47.208;7.518;2023-03-23T01:44:59;4.70;;;2.10;;
38940;SDS011;43236;47.208;7.518;2023-03-23T01:47:33;4.20;;;1.90;;
38940;SDS011;43236;47.208;7.518;2023-03-23T01:50:21;5.60;;;2.40;;
38940;SDS011;43236;47.208;7.518;2023-03-23T01:53:10;8.32;;;2.42;;
38940;SDS011;43236;47.208;7.518;2023-03-23T01:55:57;5.05;;;2.15;;
38940;SDS011;43236;47.208;7.518;2023-03-23T01:58:46;5.18;;;2.20;;
38940;SDS011;43236;47.208;7.518;2023-03-23T02:01:35;4.85;;;2.63;;
38940;SDS011;43236;47.208;7.518;2023-03-23T02:04:24;5.85;;;2.33;;
38940;SDS011;43236;47.208;7.518;2023-03-23T02:07:12;6.45;;;2.65;;
38940;SDS011;43236;47.208;7.518;2023-03-23T02:10:01;6.78;;;2.85;;
38940;SDS011;43236;47.208;7.518;2023-03-23T02:12:49;11.68;;;2.65;;
38940;SDS011;43236;47.208;7.518;2023-03-23T02:15:39;6.90;;;2.25;;
38940;SDS011;43236;47.208;7.518;2023-03-23T02:18:38;9.05;;;2.70;;
38940;SDS011;43236;47.208;7.518;2023-03-23T02:21:39;11.45;;;2.50;;
38940;SDS011;43236;47.208;7.518;2023-03-23T02:24:55;5.30;;;2.40;;
38940;SDS011;43236;47.208;7.518;2023-03-23T02:27:50;6.22;;;2.70;;
38940;SDS011;43236;47.208;7.518;2023-03-23T02:30:55;4.53;;;2.17;;
38940;SDS011;43236;47.208;7.518;2023-03-23T02:33:53;5.07;;;2.30;;
38940;SDS011;43236;47.208;7.518;2023-03-23T02:39:36;6.07;;;2.25;;
38940;SDS011;43236;47.208;7.518;2023-03-23T02:42:30;5.18;;;2.33;;
38940;SDS011;43236;47.208;7.518;2023-03-23T02:45:19;7.20;;;2.45;;
38940;SDS011;43236;47.208;7.518;2023-03-23T02:48:08;6.15;;;2.55;;
38940;SDS011;43236;47.208;7.518;2023-03-23T02:51:00;6.05;;;2.60;;
38940;SDS011;43236;47.208;7.518;2023-03-23T02:53:49;7.35;;;2.40;;
38940;SDS011;43236;47.208;7.518;2023-03-23T02:56:38;4.70;;;2.50;;
38940;SDS011;43236;47.208;7.518;2023-03-23T02:59:27;7.28;;;2.70;;
38940;SDS011;43236;47.208;7.518;2023-03-23T03:02:14;5.53;;;2.53;;
38940;SDS011;43236;47.208;7.518;2023-03-23T03:05:07;8.40;;;3.35;;
38940;SDS011;43236;47.208;7.518;2023-03-23T03:08:07;6.43;;;2.88;;
38940;SDS011;43236;47.208;7.518;2023-03-23T03:11:03;6.00;;;2.83;;
38940;SDS011;43236;47.208;7.518;2023-03-23T03:13:54;7.72;;;2.63;;
38940;SDS011;43236;47.208;7.518;2023-03-23T03:16:45;7.55;;;2.67;;
38940;SDS011;43236;47.208;7.518;2023-03-23T03:19:38;6.13;;;2.65;;
38940;SDS011;43236;47.208;7.518;2023-03-23T03:22:28;5.53;;;2.97;;
38940;SDS011;43236;47.208;7.518;2023-03-23T03:25:17;5.20;;;2.30;;
38940;SDS011;43236;47.208;7.518;2023-03-23T03:28:08;5.25;;;2.15;;
38940;SDS011;43236;47.208;7.518;2023-03-23T03:30:56;7.55;;;2.55;;
38940;SDS011;43236;47.208;7.518;2023-03-23T03:33:45;9.52;;;2.88;;
38940;SDS011;43236;47.208;7.518;2023-03-23T03:36:33;6.82;;;2.92;;
38940;SDS011;43236;47.208;7.518;2023-03-23T03:39:21;5.75;;;2.90;;
38940;SDS011;43236;47.208;7.518;2023-03-23T03:42:10;10.00;;;3.08;;
38940;SDS011;43236;47.208;7.518;2023-03-23T03:44:57;6.72;;;2.88;;
38940;SDS011;43236;47.208;7.518;2023-03-23T03:47:44;8.88;;;2.78;;
38940;SDS011;43236;47.208;7.518;2023-03-23T03:50:31;7.35;;;3.10;;
38940;SDS011;43236;47.208;7.518;2023-03-23T03:53:18;7.80;;;2.58;;
38940;SDS011;43236;47.208;7.518;2023-03-23T03:56:06;9.38;;;2.67;;
38940;SDS011;43236;47.208;7.518;2023-03-23T03:58:54;5.03;;;2.85;;
38940;SDS011;43236;47.208;7.518;2023-03-23T04:01:42;7.95;;;2.47;;
38940;SDS011;43236;47.208;7.518;2023-03-23T04:04:29;4.57;;;2.38;;
38940;SDS011;43236;47.208;7.518;2023-03-23T04:07:16;5.35;;;1.98;;
38940;SDS011;43236;47.208;7.518;2023-03-23T04:10:04;5.20;;;2.35;;
38940;SDS011;43236;47.208;7.518;2023-03-23T04:12:52;7.00;;;2.83;;
38940;SDS011;43236;47.208;7.518;2023-03-23T04:15:40;5.70;;;2.42;;
38940;SDS011;43236;47.208;7.518;2023-03-23T04:18:27;5.07;;;2.17;;
38940;SDS011;43236;47.208;7.518;2023-03-23T04:21:17;5.72;;;2.40;;
38940;SDS011;43236;47.208;7.518;2023-03-23T04:24:04;6.22;;;2.08;;
38940;SDS011;43236;47.208;7.518;2023-03-23T04:26:52;4.30;;;1.95;;
38940;SDS011;43236;47.208;7.518;2023-03-23T04:29:39;4.88;;;2.30;;
38940;SDS011;43236;47.208;7.518;2023-03-23T04:32:28;6.82;;;2.55;;
38940;SDS011;43236;47.208;7.518;2023-03-23T04:35:16;4.57;;;2.10;;
38940;SDS011;43236;47.208;7.518;2023-03-23T04:38:04;6.18;;;2.80;;
38940;SDS011;43236;47.208;7.518;2023-03-23T04:40:52;7.57;;;2.50;;
38940;SDS011;43236;47.208;7.518;2023-03-23T04:43:40;7.68;;;2.42;;
38940;SDS011;43236;47.208;7.518;2023-03-23T04:46:27;6.53;;;2.80;;
38940;SDS011;43236;47.208;7.518;2023-03-23T04:49:16;5.70;;;2.53;;
38940;SDS011;43236;47.208;7.518;2023-03-23T04:52:06;8.30;;;2.72;;
38940;SDS011;43236;47.208;7.518;2023-03-23T04:54:53;6.57;;;2.88;;
38940;SDS011;43236;47.208;7.518;2023-03-23T04:57:41;5.85;;;2.38;;
38940;SDS011;43236;47.208;7.518;2023-03-23T05:00:28;6.22;;;2.60;;
38940;SDS011;43236;47.208;7.518;2023-03-23T05:03:16;5.90;;;2.80;;
38940;SDS011;43236;47.208;7.518;2023-03-23T05:06:04;5.88;;;2.70;;
38940;SDS011;43236;47.208;7.518;2023-03-23T05:08:52;4.68;;;2.30;;
38940;SDS011;43236;47.208;7.518;2023-03-23T05:11:40;5.40;;;3.00;;
38940;SDS011;43236;47.208;7.518;2023-03-23T05:14:27;4.90;;;2.80;;
38940;SDS011;43236;47.208;7.518;2023-03-23T05:17:14;7.95;;;3.35;;
38940;SDS011;43236;47.208;7.518;2023-03-23T05:20:03;5.95;;;2.78;;
38940;SDS011;43236;47.208;7.518;2023-03-23T05:22:54;6.28;;;2.95;;
38940;SDS011;43236;47.208;7.518;2023-03-23T05:25:42;6.53;;;2.90;;
38940;SDS011;43236;47.208;7.518;2023-03-23T05:28:30;7.20;;;3.10;;
38940;SDS011;43236;47.208;7.518;2023-03-23T05:31:17;5.13;;;2.65;;
38940;SDS011;43236;47.208;7.518;2023-03-23T05:34:04;7.82;;;2.97;;
38940;SDS011;43236;47.208;7.518;2023-03-23T05:36:51;7.40;;;3.10;;
38940;SDS011;43236;47.208;7.518;2023-03-23T05:39:39;5.60;;;2.83;;
38940;SDS011;43236;47.208;7.518;2023-03-23T05:42:26;6.15;;;2.47;;
38940;SDS011;43236;47.208;7.518;2023-03-23T05:45:14;5.10;;;2.40;;
38940;SDS011;43236;47.208;7.518;2023-03-23T05:48:01;7.20;;;2.72;;
38940;SDS011;43236;47.208;7.518;2023-03-23T05:50:48;6.70;;;2.58;;
38940;SDS011;43236;47.208;7.518;2023-03-23T05:53:35;6.28;;;2.50;;
38940;SDS011;43236;47.208;7.518;2023-03-23T05:56:24;5.60;;;2.45;;
38940;SDS011;43236;47.208;7.518;2023-03-23T05:59:11;5.18;;;2.65;;
38940;SDS011;43236;47.208;7.518;2023-03-23T06:01:58;5.30;;;2.60;;
38940;SDS011;43236;47.208;7.518;2023-03-23T06:04:45;9.25;;;2.78;;
38940;SDS011;43236;47.208;7.518;2023-03-23T06:07:34;5.75;;;2.70;;
38940;SDS011;43236;47.208;7.518;2023-03-23T06:10:21;8.63;;;3.20;;
38940;SDS011;43236;47.208;7.518;2023-03-23T06:13:10;6.10;;;3.05;;
38940;SDS011;43236;47.208;7.518;2023-03-23T06:15:57;9.63;;;3.15;;
38940;SDS011;43236;47.208;7.518;2023-03-23T06:18:44;9.55;;;3.03;;
38940;SDS011;43236;47.208;7.518;2023-03-23T06:21:32;7.85;;;3.05;;
38940;SDS011;43236;47.208;7.518;2023-03-23T06:24:19;11.35;;;3.17;;
38940;SDS011;43236;47.208;7.518;2023-03-23T06:27:07;5.97;;;2.90;;
38940;SDS011;43236;47.208;7.518;2023-03-23T06:29:55;8.18;;;3.35;;
38940;SDS011;43236;47.208;7.518;2023-03-23T06:32:42;6.32;;;3.35;;
38940;SDS011;43236;47.208;7.518;2023-03-23T06:35:32;9.55;;;3.53;;
38940;SDS011;43236;47.208;7.518;2023-03-23T06:38:19;6.72;;;2.92;;
38940;SDS011;43236;47.208;7.518;2023-03-23T06:41:06;10.68;;;2.67;;
38940;SDS011;43236;47.208;7.518;2023-03-23T06:43:54;13.30;;;3.95;;
38940;SDS011;43236;47.208;7.518;2023-03-23T06:46:42;7.97;;;3.17;;
38940;SDS011;43236;47.208;7.518;2023-03-23T06:49:29;8.02;;;3.30;;
38940;SDS011;43236;47.208;7.518;2023-03-23T06:52:17;8.88;;;3.47;;
38940;SDS011;43236;47.208;7.518;2023-03-23T06:55:04;7.68;;;3.45;;
38940;SDS011;43236;47.208;7.518;2023-03-23T06:57:52;11.15;;;3.75;;
38940;SDS011;43236;47.208;7.518;2023-03-23T07:00:39;21.50;;;8.50;;
38940;SDS011;43236;47.208;7.518;2023-03-23T07:03:27;21.98;;;8.27;;
38940;SDS011;43236;47.208;7.518;2023-03-23T07:06:16;11.88;;;5.80;;
38940;SDS011;43236;47.208;7.518;2023-03-23T07:09:04;10.13;;;4.70;;
38940;SDS011;43236;47.208;7.518;2023-03-23T07:11:51;13.27;;;4.57;;
38940;SDS011;43236;47.208;7.518;2023-03-23T07:14:38;9.38;;;4.18;;
38940;SDS011;43236;47.208;7.518;2023-03-23T07:17:26;8.52;;;3.50;;
38940;SDS011;43236;47.208;7.518;2023-03-23T07:20:15;9.85;;;4.20;;
38940;SDS011;43236;47.208;7.518;2023-03-23T07:23:02;9.00;;;3.53;;
38940;SDS011;43236;47.208;7.518;2023-03-23T07:25:50;7.40;;;3.05;;
38940;SDS011;43236;47.208;7.518;2023-03-23T07:28:39;7.05;;;3.22;;
38940;SDS011;43236;47.208;7.518;2023-03-23T07:31:26;7.57;;;3.10;;
38940;SDS011;43236;47.208;7.518;2023-03-23T07:34:13;6.85;;;2.70;;
38940;SDS011;43236;47.208;7.518;2023-03-23T07:37:01;6.10;;;2.92;;
38940;SDS011;43236;47.208;7.518;2023-03-23T07:39:48;13.55;;;4.15;;
38940;SDS011;43236;47.208;7.518;2023-03-23T07:42:36;8.18;;;3.58;;
38940;SDS011;43236;47.208;7.518;2023-03-23T07:45:23;8.30;;;3.10;;
38940;SDS011;43236;47.208;7.518;2023-03-23T07:48:10;10.73;;;3.90;;
38940;SDS011;43236;47.208;7.518;2023-03-23T07:50:58;10.00;;;3.97;;
38940;SDS011;43236;47.208;7.518;2023-03-23T07:53:46;5.57;;;3.25;;
38940;SDS011;43236;47.208;7.518;2023-03-23T07:56:33;10.88;;;3.63;;
38940;SDS011;43236;47.208;7.518;2023-03-23T07:59:21;6.65;;;3.15;;
38940;SDS011;43236;47.208;7.518;2023-03-23T08:02:08;9.75;;;3.10;;
38940;SDS011;43236;47.208;7.518;2023-03-23T08:04:55;9.93;;;3.50;;
38940;SDS011;43236;47.208;7.518;2023-03-23T08:07:46;13.73;;;3.90;;
38940;SDS011;43236;47.208;7.518;2023-03-23T08:10:36;8.05;;;3.55;;
38940;SDS011;43236;47.208;7.518;2023-03-23T08:13:23;9.95;;;3.65;;
38940;SDS011;43236;47.208;7.518;2023-03-23T08:16:11;9.77;;;3.17;;
38940;SDS011;43236;47.208;7.518;2023-03-23T08:18:58;9.35;;;3.00;;
38940;SDS011;43236;47.208;7.518;2023-03-23T08:21:45;7.43;;;3.33;;
38940;SDS011;43236;47.208;7.518;2023-03-23T08:24:33;8.05;;;3.03;;
38940;SDS011;43236;47.208;7.518;2023-03-23T08:27:21;7.25;;;2.72;;
38940;SDS011;43236;47.208;7.518;2023-03-23T08:30:09;9.38;;;2.72;;
38940;SDS011;43236;47.208;7.518;2023-03-23T08:32:57;6.40;;;3.28;;
38940;SDS011;43236;47.208;7.518;2023-03-23T08:35:53;6.53;;;3.28;;
38940;SDS011;43236;47.208;7.518;2023-03-23T08:38:41;5.68;;;2.60;;
38940;SDS011;43236;47.208;7.518;2023-03-23T08:41:29;6.40;;;2.50;;
38940;SDS011;43236;47.208;7.518;2023-03-23T08:44:18;6.38;;;2.60;;
38940;SDS011;43236;47.208;7.518;2023-03-23T08:47:06;8.07;;;2.35;;
38940;SDS011;43236;47.208;7.518;2023-03-23T08:49:53;5.90;;;2.60;;
38940;SDS011;43236;47.208;7.518;2023-03-23T08:52:40;6.07;;;2.33;;
38940;SDS011;43236;47.208;7.518;2023-03-23T08:55:29;5.53;;;2.28;;
38940;SDS011;43236;47.208;7.518;2023-03-23T08:58:17;6.57;;;2.28;;
38940;SDS011;43236;47.208;7.518;2023-03-23T09:01:06;5.75;;;2.60;;
38940;SDS011;43236;47.208;7.518;2023-03-23T09:03:54;5.63;;;2.90;;
38940;SDS011;43236;47.208;7.518;2023-03-23T09:06:41;5.97;;;2.45;;
38940;SDS011;43236;47.208;7.518;2023-03-23T09:09:28;5.10;;;2.50;;
38940;SDS011;43236;47.208;7.518;2023-03-23T09:12:15;6.50;;;2.70;;
38940;SDS011;43236;47.208;7.518;2023-03-23T09:15:03;5.13;;;2.45;;
38940;SDS011;43236;47.208;7.518;2023-03-23T09:17:54;3.65;;;1.95;;
38940;SDS011;43236;47.208;7.518;2023-03-23T09:20:42;3.40;;;1.98;;
38940;SDS011;43236;47.208;7.518;2023-03-23T09:23:30;6.05;;;1.92;;
38940;SDS011;43236;47.208;7.518;2023-03-23T09:26:17;3.67;;;1.95;;
38940;SDS011;43236;47.208;7.518;2023-03-23T09:29:05;3.85;;;1.92;;
38940;SDS011;43236;47.208;7.518;2023-03-23T09:31:52;6.28;;;2.00;;
38940;SDS011;43236;47.208;7.518;2023-03-23T09:34:40;4.63;;;1.98;;
38940;SDS011;43236;47.208;7.518;2023-03-23T09:37:28;2.88;;;1.63;;
38940;SDS011;43236;47.208;7.518;2023-03-23T09:40:15;14.65;;;2.15;;
38940;SDS011;43236;47.208;7.518;2023-03-23T09:43:16;4.80;;;2.08;;
38940;SDS011;43236;47.208;7.518;2023-03-23T09:46:15;7.90;;;1.77;;
38940;SDS011;43236;47.208;7.518;2023-03-23T09:49:14;3.38;;;1.63;;
38940;SDS011;43236;47.208;7.518;2023-03-23T09:52:09;3.42;;;1.77;;
38940;SDS011;43236;47.208;7.518;2023-03-23T09:57:49;4.38;;;1.88;;
38940;SDS011;43236;47.208;7.518;2023-03-23T10:00:41;4.75;;;2.13;;
38940;SDS011;43236;47.208;7.518;2023-03-23T10:03:34;3.70;;;1.75;;
38940;SDS011;43236;47.208;7.518;2023-03-23T10:06:26;4.18;;;1.92;;
38940;SDS011;43236;47.208;7.518;2023-03-23T10:09:15;8.00;;;1.95;;
38940;SDS011;43236;47.208;7.518;2023-03-23T10:12:09;4.30;;;2.10;;
38940;SDS011;43236;47.208;7.518;2023-03-23T10:15:03;6.00;;;1.60;;
38940;SDS011;43236;47.208;7.518;2023-03-23T10:17:59;4.20;;;1.73;;
38940;SDS011;43236;47.208;7.518;2023-03-23T10:20:48;3.03;;;1.65;;
38940;SDS011;43236;47.208;7.518;2023-03-23T10:23:41;5.88;;;1.73;;
38940;SDS011;43236;47.208;7.518;2023-03-23T10:26:39;3.50;;;1.42;;
38940;SDS011;43236;47.208;7.518;2023-03-23T10:29:34;6.47;;;2.00;;
38940;SDS011;43236;47.208;7.518;2023-03-23T10:32:36;5.03;;;2.55;;
38940;SDS011;43236;47.208;7.518;2023-03-23T10:35:28;4.40;;;1.98;;
38940;SDS011;43236;47.208;7.518;2023-03-23T10:38:19;4.90;;;2.00;;
38940;SDS011;43236;47.208;7.518;2023-03-23T10:41:10;5.78;;;2.00;;
38940;SDS011;43236;47.208;7.518;2023-03-23T10:44:00;4.43;;;2.05;;
38940;SDS011;43236;47.208;7.518;2023-03-23T10:46:49;6.70;;;1.98;;
38940;SDS011;43236;47.208;7.518;2023-03-23T10:49:43;3.83;;;1.95;;
38940;SDS011;43236;47.208;7.518;2023-03-23T10:52:35;4.13;;;1.83;;
38940;SDS011;43236;47.208;7.518;2023-03-23T10:55:24;6.05;;;2.13;;
38940;SDS011;43236;47.208;7.518;2023-03-23T10:58:24;4.65;;;1.73;;
38940;SDS011;43236;47.208;7.518;2023-03-23T11:01:17;3.30;;;1.48;;
38940;SDS011;43236;47.208;7.518;2023-03-23T11:04:10;5.88;;;1.90;;
38940;SDS011;43236;47.208;7.518;2023-03-23T11:06:59;6.68;;;1.92;;
38940;SDS011;43236;47.208;7.518;2023-03-23T11:09:52;4.82;;;1.75;;
38940;SDS011;43236;47.208;7.518;2023-03-23T11:12:43;3.45;;;1.60;;
38940;SDS011;43236;47.208;7.518;2023-03-23T11:15:32;3.55;;;1.52;;
38940;SDS011;43236;47.208;7.518;2023-03-23T11:18:24;5.22;;;1.70;;
38940;SDS011;43236;47.208;7.518;2023-03-23T11:21:12;7.47;;;2.00;;
38940;SDS011;43236;47.208;7.518;2023-03-23T11:24:02;6.43;;;1.70;;
38940;SDS011;43236;47.208;7.518;2023-03-23T11:26:49;3.92;;;1.45;;
38940;SDS011;43236;47.208;7.518;2023-03-23T11:29:42;6.25;;;2.10;;
38940;SDS011;43236;47.208;7.518;2023-03-23T11:32:33;4.70;;;2.17;;
38940;SDS011;43236;47.208;7.518;2023-03-23T11:35:23;8.50;;;1.85;;
38940;SDS011;43236;47.208;7.518;2023-03-23T11:38:15;4.65;;;1.45;;
38940;SDS011;43236;47.208;7.518;2023-03-23T11:41:08;9.05;;;2.17;;
38940;SDS011;43236;47.208;7.518;2023-03-23T11:43:57;4.38;;;1.67;;
38940;SDS011;43236;47.208;7.518;2023-03-23T11:46:57;3.97;;;1.80;;
38940;SDS011;43236;47.208;7.518;2023-03-23T11:49:50;3.42;;;1.70;;
38940;SDS011;43236;47.208;7.518;2023-03-23T11:52:44;4.70;;;1.43;;
38940;SDS011;43236;47.208;7.518;2023-03-23T11:55:49;3.03;;;1.30;;
38940;SDS011;43236;47.208;7.518;2023-03-23T11:58:40;4.18;;;2.15;;
38940;SDS011;43236;47.208;7.518;2023-03-23T12:01:31;6.30;;;1.73;;
38940;SDS011;43236;47.208;7.518;2023-03-23T12:08:03;9.02;;;1.65;;
38940;SDS011;43236;47.208;7.518;2023-03-23T12:11:06;7.45;;;1.60;;
38940;SDS011;43236;47.208;7.518;2023-03-23T12:14:06;5.07;;;1.20;;
38940;SDS011;43236;47.208;7.518;2023-03-23T12:17:05;4.90;;;1.45;;
38940;SDS011;43236;47.208;7.518;2023-03-23T12:20:08;5.13;;;1.70;;
38940;SDS011;43236;47.208;7.518;2023-03-23T12:23:08;5.22;;;1.35;;
38940;SDS011;43236;47.208;7.518;2023-03-23T12:26:12;5.57;;;1.38;;
38940;SDS011;43236;47.208;7.518;2023-03-23T12:29:12;5.30;;;1.67;;
38940;SDS011;43236;47.208;7.518;2023-03-23T12:32:19;3.63;;;1.52;;
38940;SDS011;43236;47.208;7.518;2023-03-23T12:35:25;4.28;;;1.55;;
38940;SDS011;43236;47.208;7.518;2023-03-23T12:38:26;3.05;;;1.42;;
38940;SDS011;43236;47.208;7.518;2023-03-23T12:41:29;4.35;;;1.73;;
38940;SDS011;43236;47.208;7.518;2023-03-23T12:44:23;9.25;;;1.88;;
38940;SDS011;43236;47.208;7.518;2023-03-23T12:47:29;5.30;;;1.70;;
38940;SDS011;43236;47.208;7.518;2023-03-23T12:50:24;4.18;;;1.40;;
38940;SDS011;43236;47.208;7.518;2023-03-23T12:53:17;2.00;;;1.10;;
38940;SDS011;43236;47.208;7.518;2023-03-23T12:56:12;4.55;;;1.40;;
38940;SDS011;43236;47.208;7.518;2023-03-23T13:01:55;4.72;;;1.40;;
38940;SDS011;43236;47.208;7.518;2023-03-23T13:04:49;5.70;;;1.42;;
38940;SDS011;43236;47.208;7.518;2023-03-23T13:07:42;5.70;;;1.35;;
38940;SDS011;43236;47.208;7.518;2023-03-23T13:10:33;2.70;;;1.20;;
38940;SDS011;43236;47.208;7.518;2023-03-23T13:13:39;4.22;;;1.20;;
38940;SDS011;43236;47.208;7.518;2023-03-23T13:16:31;4.13;;;1.30;;
38940;SDS011;43236;47.208;7.518;2023-03-23T13:19:25;3.10;;;1.52;;
38940;SDS011;43236;47.208;7.518;2023-03-23T13:22:17;3.75;;;1.65;;
38940;SDS011;43236;47.208;7.518;2023-03-23T13:25:08;2.78;;;1.23;;
38940;SDS011;43236;47.208;7.518;2023-03-23T13:28:00;2.88;;;1.40;;
38940;SDS011;43236;47.208;7.518;2023-03-23T13:30:56;2.85;;;1.20;;
38940;SDS011;43236;47.208;7.518;2023-03-23T13:33:46;6.55;;;1.98;;
38940;SDS011;43236;47.208;7.518;2023-03-23T13:36:37;9.48;;;2.40;;
38940;SDS011;43236;47.208;7.518;2023-03-23T13:39:26;7.35;;;2.03;;
38940;SDS011;43236;47.208;7.518;2023-03-23T13:42:18;7.82;;;1.90;;
38940;SDS011;43236;47.208;7.518;2023-03-23T13:45:17;6.15;;;1.98;;
38940;SDS011;43236;47.208;7.518;2023-03-23T13:48:18;4.22;;;1.77;;
38940;SDS011;43236;47.208;7.518;2023-03-23T13:51:23;4.75;;;1.80;;
38940;SDS011;43236;47.208;7.518;2023-03-23T13:54:19;4.32;;;1.63;;
38940;SDS011;43236;47.208;7.518;2023-03-23T13:57:21;4.18;;;1.50;;
38940;SDS011;43236;47.208;7.518;2023-03-23T14:00:27;4.32;;;1.80;;
38940;SDS011;43236;47.208;7.518;2023-03-23T14:03:25;6.72;;;1.67;;
38940;SDS011;43236;47.208;7.518;2023-03-23T14:06:20;6.22;;;1.60;;
38940;SDS011;43236;47.208;7.518;2023-03-23T14:09:11;5.25;;;2.00;;
38940;SDS011;43236;47.208;7.518;2023-03-23T14:12:03;4.68;;;1.65;;
38940;SDS011;43236;47.208;7.518;2023-03-23T14:14:55;5.53;;;2.00;;
38940;SDS011;43236;47.208;7.518;2023-03-23T14:17:47;4.38;;;1.60;;
38940;SDS011;43236;47.208;7.518;2023-03-23T14:20:37;3.35;;;1.40;;
38940;SDS011;43236;47.208;7.518;2023-03-23T14:23:25;3.42;;;1.50;;
38940;SDS011;43236;47.208;7.518;2023-03-23T14:26:14;3.58;;;1.40;;
38940;SDS011;43236;47.208;7.518;2023-03-23T14:29:03;4.38;;;1.70;;
38940;SDS011;43236;47.208;7.518;2023-03-23T14:31:55;9.15;;;2.10;;
38940;SDS011;43236;47.208;7.518;2023-03-23T14:34:44;4.00;;;1.40;;
38940;SDS011;43236;47.208;7.518;2023-03-23T14:37:35;3.63;;;1.30;;
38940;SDS011;43236;47.208;7.518;2023-03-23T14:40:23;3.78;;;1.15;;
38940;SDS011;43236;47.208;7.518;2023-03-23T14:43:14;4.93;;;1.50;;
38940;SDS011;43236;47.208;7.518;2023-03-23T14:46:05;4.43;;;1.45;;
38940;SDS011;43236;47.208;7.518;2023-03-23T14:48:53;3.47;;;1.65;;
38940;SDS011;43236;47.208;7.518;2023-03-23T14:51:46;6.28;;;1.50;;
38940;SDS011;43236;47.208;7.518;2023-03-23T14:54:36;3.40;;;1.48;;
38940;SDS011;43236;47.208;7.518;2023-03-23T14:57:27;4.70;;;1.38;;
38940;SDS011;43236;47.208;7.518;2023-03-23T15:00:16;5.05;;;1.50;;
38940;SDS011;43236;47.208;7.518;2023-03-23T15:03:04;2.40;;;1.30;;
38940;SDS011;43236;47.208;7.518;2023-03-23T15:05:54;5.60;;;1.30;;
38940;SDS011;43236;47.208;7.518;2023-03-23T15:08:43;4.50;;;1.52;;
38940;SDS011;43236;47.208;7.518;2023-03-23T15:11:34;4.18;;;1.00;;
38940;SDS011;43236;47.208;7.518;2023-03-23T15:14:26;6.13;;;1.55;;
38940;SDS011;43236;47.208;7.518;2023-03-23T15:17:18;3.55;;;1.40;;
38940;SDS011;43236;47.208;7.518;2023-03-23T15:20:07;3.80;;;1.50;;
38940;SDS011;43236;47.208;7.518;2023-03-23T15:22:56;3.65;;;1.33;;
38940;SDS011;43236;47.208;7.518;2023-03-23T15:25:51;5.35;;;1.35;;
38940;SDS011;43236;47.208;7.518;2023-03-23T15:28:40;3.30;;;1.63;;
38940;SDS011;43236;47.208;7.518;2023-03-23T15:31:27;3.17;;;1.00;;
38940;SDS011;43236;47.208;7.518;2023-03-23T15:34:17;5.28;;;1.40;;
38940;SDS011;43236;47.208;7.518;2023-03-23T15:37:16;4.28;;;1.50;;
38940;SDS011;43236;47.208;7.518;2023-03-23T15:40:13;3.38;;;1.33;;
38940;SDS011;43236;47.208;7.518;2023-03-23T15:43:06;5.35;;;1.30;;
38940;SDS011;43236;47.208;7.518;2023-03-23T15:46:03;3.80;;;1.35;;
38940;SDS011;43236;47.208;7.518;2023-03-23T15:49:07;4.93;;;1.88;;
38940;SDS011;43236;47.208;7.518;2023-03-23T15:51:59;3.15;;;1.25;;
38940;SDS011;43236;47.208;7.518;2023-03-23T15:54:46;4.78;;;1.30;;
38940;SDS011;43236;47.208;7.518;2023-03-23T15:57:34;3.47;;;1.27;;
38940;SDS011;43236;47.208;7.518;2023-03-23T16:00:21;2.97;;;1.35;;
38940;SDS011;43236;47.208;7.518;2023-03-23T16:03:12;7.05;;;1.33;;
38940;SDS011;43236;47.208;7.518;2023-03-23T16:06:03;3.63;;;1.45;;
38940;SDS011;43236;47.208;7.518;2023-03-23T16:08:50;4.40;;;1.35;;
38940;SDS011;43236;47.208;7.518;2023-03-23T16:11:37;4.70;;;1.30;;
38940;SDS011;43236;47.208;7.518;2023-03-23T16:14:25;5.25;;;1.23;;
38940;SDS011;43236;47.208;7.518;2023-03-23T16:17:13;5.30;;;1.48;;
38940;SDS011;43236;47.208;7.518;2023-03-23T16:20:11;5.05;;;1.30;;
38940;SDS011;43236;47.208;7.518;2023-03-23T16:22:59;2.75;;;1.30;;
38940;SDS011;43236;47.208;7.518;2023-03-23T16:25:46;2.67;;;1.10;;
38940;SDS011;43236;47.208;7.518;2023-03-23T16:28:33;2.55;;;1.30;;
38940;SDS011;43236;47.208;7.518;2023-03-23T16:31:21;3.22;;;1.35;;
38940;SDS011;43236;47.208;7.518;2023-03-23T16:34:08;3.72;;;1.30;;
38940;SDS011;43236;47.208;7.518;2023-03-23T16:36:56;4.50;;;1.45;;
38940;SDS011;43236;47.208;7.518;2023-03-23T16:39:43;3.63;;;1.40;;
38940;SDS011;43236;47.208;7.518;2023-03-23T16:42:30;3.67;;;1.23;;
38940;SDS011;43236;47.208;7.518;2023-03-23T16:45:18;4.75;;;1.30;;
38940;SDS011;43236;47.208;7.518;2023-03-23T16:48:06;4.65;;;1.85;;
38940;SDS011;43236;47.208;7.518;2023-03-23T16:50:53;4.22;;;1.50;;
38940;SDS011;43236;47.208;7.518;2023-03-23T16:53:42;3.38;;;1.50;;
38940;SDS011;43236;47.208;7.518;2023-03-23T16:56:29;4.90;;;2.00;;
38940;SDS011;43236;47.208;7.518;2023-03-23T16:59:16;8.30;;;2.70;;
38940;SDS011;43236;47.208;7.518;2023-03-23T17:02:03;2.97;;;1.52;;
38940;SDS011;43236;47.208;7.518;2023-03-23T17:04:51;4.28;;;1.80;;
38940;SDS011;43236;47.208;7.518;2023-03-23T17:07:38;3.25;;;1.50;;
38940;SDS011;43236;47.208;7.518;2023-03-23T17:10:27;5.32;;;1.63;;
38940;SDS011;43236;47.208;7.518;2023-03-23T17:13:15;3.88;;;1.80;;
38940;SDS011;43236;47.208;7.518;2023-03-23T17:16:03;5.20;;;1.90;;
38940;SDS011;43236;47.208;7.518;2023-03-23T17:18:50;5.05;;;1.70;;